createdAt,value
2018-07-12T00:01:07.567Z,76.00
2018-07-12T00:03:33.802Z,75.10
2018-07-12T00:06:00.327Z,73.20
2018-07-12T00:08:26.664Z,74.30
2018-07-12T00:10:53.019Z,75.40
2018-07-12T00:13:19.251Z,74.80
2018-07-12T00:15:45.601Z,74.10
2018-07-12T00:18:11.839Z,73.70
2018-07-12T00:20:38.119Z,73.80
2018-07-12T00:23:04.362Z,74.40
2018-07-12T00:25:30.590Z,74.40
2018-07-12T00:27:56.847Z,74.70
2018-07-12T00:30:23.096Z,74.10
2018-07-12T00:32:49.487Z,73.50
2018-07-12T00:35:15.716Z,73.90
2018-07-12T00:37:41.954Z,73.50
2018-07-12T00:40:08.198Z,74.60
2018-07-12T00:42:34.441Z,74.50
2018-07-12T00:45:00.679Z,74.20
2018-07-12T00:47:27.143Z,74.20
2018-07-12T00:49:53.381Z,74.50
2018-07-12T00:52:19.626Z,74.60
2018-07-12T00:54:45.859Z,75.80
2018-07-12T00:57:12.719Z,75.70
2018-07-12T00:59:39.279Z,75.80
2018-07-12T01:02:05.715Z,77.30
2018-07-12T01:04:32.078Z,77.40
2018-07-12T01:06:58.299Z,77.70
2018-07-12T01:09:24.642Z,76.20
2018-07-12T01:11:50.876Z,77.00
2018-07-12T01:14:17.143Z,77.10
2018-07-12T01:16:43.374Z,76.40
2018-07-12T01:19:09.618Z,76.00
2018-07-12T01:21:35.873Z,75.50
2018-07-12T01:24:02.187Z,75.60
2018-07-12T01:26:28.427Z,76.50
2018-07-12T01:28:54.677Z,75.50
2018-07-12T01:31:20.914Z,76.00
2018-07-12T01:33:47.216Z,75.50
2018-07-12T01:36:13.464Z,76.10
2018-07-12T01:38:39.716Z,76.10
2018-07-12T01:41:06.062Z,76.50
2018-07-12T01:43:32.338Z,77.80
2018-07-12T01:45:58.576Z,78.50
2018-07-12T01:48:24.823Z,78.10
2018-07-12T01:50:51.057Z,78.50
2018-07-12T01:53:17.289Z,78.20
2018-07-12T01:55:43.539Z,78.30
2018-07-12T01:58:09.790Z,78.60
2018-07-12T02:00:36.170Z,79.30
2018-07-12T02:03:02.375Z,78.20
2018-07-12T02:05:28.627Z,78.50
2018-07-12T02:07:54.854Z,78.70
2018-07-12T02:10:21.382Z,78.20
2018-07-12T02:12:47.622Z,78.60
2018-07-12T02:15:13.867Z,78.90
2018-07-12T02:17:40.107Z,79.20
2018-07-12T02:20:06.379Z,78.20
2018-07-12T02:22:32.623Z,77.70
2018-07-12T02:24:58.891Z,78.90
2018-07-12T02:27:25.267Z,78.50
2018-07-12T02:29:51.515Z,79.20
2018-07-12T02:32:17.761Z,79.90
2018-07-12T02:34:44.009Z,78.70
2018-07-12T02:37:10.243Z,78.30
2018-07-12T02:39:36.499Z,79.10
2018-07-12T02:42:02.739Z,78.20
2018-07-12T02:44:28.983Z,79.10
2018-07-12T02:46:55.220Z,79.60
2018-07-12T02:49:21.481Z,79.60
2018-07-12T02:51:47.728Z,79.20
2018-07-12T02:54:14.021Z,79.50
2018-07-12T02:56:40.294Z,79.30
2018-07-12T02:59:06.527Z,79.60
2018-07-12T03:01:32.772Z,79.00
2018-07-12T03:03:59.007Z,79.70
2018-07-12T03:06:25.443Z,80.30
2018-07-12T03:08:51.676Z,80.10
2018-07-12T03:11:17.942Z,80.30
2018-07-12T03:13:44.170Z,79.60
2018-07-12T03:16:10.475Z,80.50
2018-07-12T03:18:36.932Z,79.60
2018-07-12T03:21:03.239Z,79.60
2018-07-12T03:23:29.570Z,79.70
2018-07-12T03:28:22.562Z,80.90
2018-07-12T03:30:49.073Z,81.10
2018-07-12T03:33:15.307Z,80.80
2018-07-12T03:35:41.539Z,81.10
2018-07-12T03:38:07.798Z,81.30
2018-07-12T03:40:34.121Z,81.10
2018-07-12T03:43:00.303Z,81.40
2018-07-12T03:45:26.548Z,81.70
2018-07-12T03:47:52.795Z,81.50
2018-07-12T03:50:19.034Z,81.80
2018-07-12T03:52:45.687Z,81.80
2018-07-12T03:57:38.946Z,81.60
2018-07-12T04:00:05.175Z,81.80
2018-07-12T04:02:31.434Z,81.30
2018-07-12T04:04:57.671Z,82.00
2018-07-12T04:07:23.915Z,82.00
2018-07-12T04:09:50.455Z,82.20
2018-07-12T04:12:16.703Z,82.50
2018-07-12T04:14:42.943Z,83.10
2018-07-12T04:17:09.172Z,83.00
2018-07-12T04:19:35.424Z,82.60
2018-07-12T04:22:01.672Z,82.50
2018-07-12T04:24:27.921Z,82.90
2018-07-12T04:26:54.322Z,83.30
2018-07-12T04:29:20.578Z,83.70
2018-07-12T04:31:46.815Z,83.80
2018-07-12T04:34:13.111Z,83.50
2018-07-12T04:36:39.367Z,83.40
2018-07-12T04:39:05.879Z,83.10
2018-07-12T04:41:32.499Z,83.40
2018-07-12T04:43:58.742Z,83.00
2018-07-12T04:46:24.972Z,83.40
2018-07-12T04:48:51.215Z,83.40
2018-07-12T04:51:17.493Z,83.50
2018-07-12T04:53:44.167Z,83.50
2018-07-12T04:56:10.415Z,83.40
2018-07-12T04:58:36.669Z,83.50
2018-07-12T05:01:02.954Z,83.50
2018-07-12T05:03:29.199Z,83.20
2018-07-12T05:05:55.447Z,83.80
2018-07-12T05:08:21.683Z,83.30
2018-07-12T05:10:47.931Z,82.90
2018-07-12T05:13:14.164Z,82.20
2018-07-12T05:15:40.411Z,82.20
2018-07-12T05:18:06.664Z,81.50
2018-07-12T05:20:32.931Z,81.70
2018-07-12T05:22:59.179Z,81.20
2018-07-12T05:25:25.424Z,81.10
2018-07-12T05:27:51.707Z,80.80
2018-07-12T05:30:18.051Z,81.50
2018-07-12T05:32:44.291Z,81.90
2018-07-12T05:35:10.555Z,82.50
2018-07-12T05:37:37.707Z,82.20
2018-07-12T05:40:04.904Z,81.90
2018-07-12T05:42:32.054Z,82.30
2018-07-12T05:44:59.211Z,81.90
2018-07-12T05:47:26.377Z,81.10
2018-07-12T05:49:53.514Z,81.50
2018-07-12T05:52:20.675Z,81.00
2018-07-12T05:54:47.839Z,80.70
2018-07-12T05:57:15.019Z,80.80
2018-07-12T05:59:42.228Z,81.30
2018-07-12T06:02:17.422Z,80.00
2018-07-12T06:04:44.730Z,79.60
2018-07-12T06:07:12.828Z,79.40
2018-07-12T06:09:40.000Z,80.10
2018-07-12T06:12:07.171Z,80.40
2018-07-12T06:14:34.358Z,80.80
2018-07-12T06:17:01.688Z,80.70
2018-07-12T06:19:28.776Z,81.20
2018-07-12T06:21:55.960Z,80.00
2018-07-12T06:24:23.295Z,79.40
2018-07-12T06:26:50.486Z,80.20
2018-07-12T06:29:17.678Z,78.80
2018-07-12T06:31:44.859Z,78.80
2018-07-12T06:34:12.027Z,76.70
2018-07-12T06:36:39.167Z,75.90
2018-07-12T06:39:07.506Z,75.30
2018-07-12T06:41:34.686Z,74.50
2018-07-12T06:44:01.890Z,73.90
2018-07-12T06:46:29.091Z,74.90
2018-07-12T06:48:56.273Z,74.70
2018-07-12T06:51:23.447Z,75.10
2018-07-12T06:53:50.606Z,75.80
2018-07-12T06:56:17.755Z,75.60
2018-07-12T06:58:45.043Z,76.10
2018-07-12T07:01:12.256Z,75.70
2018-07-12T07:03:39.447Z,76.40
2018-07-12T07:06:06.630Z,76.50
2018-07-12T07:08:33.820Z,76.50
2018-07-12T07:11:01.023Z,75.50
2018-07-12T07:13:28.184Z,75.50
2018-07-12T07:15:55.348Z,75.50
2018-07-12T07:18:22.515Z,75.50
2018-07-12T07:20:50.187Z,75.20
2018-07-12T07:23:17.415Z,74.70
2018-07-12T07:25:44.835Z,74.30
2018-07-12T07:28:12.095Z,74.50
2018-07-12T07:30:39.320Z,74.80
2018-07-12T07:33:06.576Z,73.60
2018-07-12T07:35:33.788Z,73.30
2018-07-12T07:38:00.917Z,71.80
2018-07-12T07:40:28.103Z,72.20
2018-07-12T07:42:55.284Z,71.80
2018-07-12T07:45:22.466Z,71.90
2018-07-12T07:47:49.619Z,72.70
2018-07-12T07:50:16.796Z,72.60
2018-07-12T07:52:44.022Z,71.90
2018-07-12T07:55:11.256Z,71.40
2018-07-12T07:57:38.459Z,69.20
2018-07-12T08:00:05.751Z,67.50
2018-07-12T08:02:32.928Z,65.90
2018-07-12T08:05:00.219Z,64.00
2018-07-12T08:07:34.067Z,62.70
2018-07-12T08:10:01.367Z,61.70
2018-07-12T08:12:28.551Z,62.20
2018-07-12T08:17:23.090Z,59.00
2018-07-12T08:19:50.308Z,58.20
2018-07-12T08:22:17.491Z,59.20
2018-07-12T08:24:44.767Z,59.10
2018-07-12T08:27:11.986Z,58.30
2018-07-12T08:29:39.266Z,58.00
2018-07-12T08:32:06.480Z,56.20
2018-07-12T08:34:33.711Z,55.90
2018-07-12T08:37:00.969Z,58.50
2018-07-12T08:44:22.680Z,58.40
2018-07-12T08:46:49.923Z,58.90
2018-07-12T08:49:17.574Z,58.10
2018-07-12T08:51:45.027Z,59.40
2018-07-12T08:54:12.316Z,59.80
2018-07-12T08:56:39.864Z,58.80
2018-07-12T08:59:07.068Z,58.00
2018-07-12T09:01:34.316Z,56.60
2018-07-12T09:04:01.573Z,57.00
2018-07-12T09:06:28.756Z,54.50
2018-07-12T09:08:55.939Z,55.10
2018-07-12T09:11:23.175Z,57.00
2018-07-12T09:13:50.369Z,57.80
2018-07-12T09:16:17.607Z,59.00
2018-07-12T09:18:44.951Z,59.40
2018-07-12T09:21:12.115Z,58.90
2018-07-12T09:23:39.385Z,58.30
2018-07-12T09:26:06.574Z,56.00
2018-07-12T09:28:33.735Z,55.40
2018-07-12T09:31:00.886Z,55.20
2018-07-12T09:33:28.086Z,53.60
2018-07-12T09:35:55.236Z,52.80
2018-07-12T09:38:34.843Z,51.10
2018-07-12T09:41:01.995Z,51.90
2018-07-12T09:43:29.615Z,54.50
2018-07-12T09:45:56.759Z,54.10
2018-07-12T09:48:23.955Z,55.20
2018-07-12T09:50:51.246Z,55.60
2018-07-12T09:53:18.426Z,56.60
2018-07-12T09:55:45.668Z,55.50
2018-07-12T09:58:22.698Z,52.20
2018-07-12T10:00:55.649Z,48.10
2018-07-12T10:03:22.920Z,47.10
2018-07-12T10:05:55.860Z,50.60
2018-07-12T10:08:28.811Z,52.20
2018-07-12T10:11:01.720Z,51.80
2018-07-12T10:13:34.831Z,52.50
2018-07-12T10:16:02.927Z,53.70
2018-07-12T10:18:30.735Z,53.00
2018-07-12T10:20:58.122Z,54.30
2018-07-12T10:23:25.459Z,56.00
2018-07-12T10:25:52.647Z,54.80
2018-07-12T10:28:19.823Z,52.30
2018-07-12T10:30:47.772Z,49.00
2018-07-12T10:33:15.119Z,47.90
2018-07-12T10:35:42.283Z,48.00
2018-07-12T10:38:09.440Z,49.50
2018-07-12T10:40:36.635Z,50.40
2018-07-12T10:43:03.903Z,49.00
2018-07-12T10:45:31.079Z,50.60
2018-07-12T10:47:58.235Z,52.40
2018-07-12T10:50:25.409Z,53.10
2018-07-12T10:52:52.579Z,52.70
2018-07-12T10:55:19.740Z,52.20
2018-07-12T11:00:14.111Z,46.70
2018-07-12T11:02:41.291Z,46.20
2018-07-12T11:05:08.463Z,47.70
2018-07-12T11:07:35.612Z,47.90
2018-07-12T11:10:02.914Z,47.00
2018-07-12T11:12:29.998Z,46.40
2018-07-12T11:14:57.178Z,43.40
2018-07-12T11:17:24.359Z,42.10
2018-07-12T11:19:51.542Z,42.30
2018-07-12T11:22:18.695Z,42.80
2018-07-12T11:24:45.858Z,42.80
2018-07-12T11:27:13.102Z,45.00
2018-07-12T11:29:49.403Z,45.00
2018-07-12T11:32:16.749Z,43.50
2018-07-12T11:34:43.912Z,43.80
2018-07-12T11:37:17.019Z,45.50
2018-07-12T11:39:44.171Z,42.00
2018-07-12T11:42:11.342Z,41.70
2018-07-12T11:44:38.557Z,41.10
2018-07-12T11:47:05.706Z,41.80
2018-07-12T11:49:32.891Z,39.90
2018-07-12T11:52:00.040Z,40.20
2018-07-12T11:54:27.285Z,39.70
2018-07-12T11:56:54.447Z,42.70
2018-07-12T11:59:21.635Z,44.60
2018-07-12T12:01:48.845Z,46.40
2018-07-12T12:06:43.135Z,48.40
2018-07-12T12:11:37.485Z,47.90
2018-07-12T12:14:04.655Z,45.20
2018-07-12T12:16:31.814Z,44.70
2018-07-12T12:18:58.966Z,43.00
2018-07-12T12:21:26.123Z,40.10
2018-07-12T12:23:53.277Z,40.80
2018-07-12T12:26:20.457Z,40.20
2018-07-12T12:28:47.620Z,42.00
2018-07-12T12:31:14.786Z,44.10
2018-07-12T12:33:41.949Z,45.50
2018-07-12T12:36:09.147Z,46.10
2018-07-12T12:38:36.291Z,48.00
2018-07-12T12:41:03.448Z,48.90
2018-07-12T12:43:30.597Z,47.60
2018-07-12T12:45:57.769Z,47.50
2018-07-12T12:48:24.911Z,47.60
2018-07-12T12:50:52.107Z,46.50
2018-07-12T12:53:19.245Z,40.70
2018-07-12T12:55:46.419Z,41.40
2018-07-12T12:58:13.578Z,42.00
2018-07-12T13:00:40.757Z,41.70
2018-07-12T13:03:07.899Z,41.50
2018-07-12T13:05:35.116Z,43.20
2018-07-12T13:08:02.325Z,44.80
2018-07-12T13:10:29.482Z,44.50
2018-07-12T13:12:56.630Z,47.80
2018-07-12T13:15:24.049Z,47.70
2018-07-12T13:17:51.209Z,48.40
2018-07-12T13:20:18.371Z,47.90
2018-07-12T13:22:45.520Z,46.20
2018-07-12T13:25:12.708Z,44.80
2018-07-12T13:27:39.877Z,43.50
2018-07-12T13:30:07.035Z,43.30
2018-07-12T13:32:34.189Z,44.10
2018-07-12T13:35:01.348Z,43.30
2018-07-12T13:37:28.561Z,43.20
2018-07-12T13:39:55.721Z,44.10
2018-07-12T13:42:22.883Z,44.20
2018-07-12T13:44:50.048Z,45.10
2018-07-12T13:47:17.207Z,43.10
2018-07-12T13:49:44.375Z,42.70
2018-07-12T13:52:11.592Z,41.10
2018-07-12T13:54:38.741Z,42.30
2018-07-12T13:57:05.903Z,39.50
2018-07-12T13:59:33.062Z,42.60
2018-07-12T14:02:00.245Z,40.20
2018-07-12T14:04:27.432Z,40.40
2018-07-12T14:06:54.595Z,40.20
2018-07-12T14:09:21.771Z,39.60
2018-07-12T14:11:48.956Z,41.10
2018-07-12T14:14:16.149Z,43.30
2018-07-12T14:16:43.328Z,45.10
2018-07-12T14:19:10.562Z,43.70
2018-07-12T14:21:37.667Z,44.10
2018-07-12T14:24:04.819Z,43.50
2018-07-12T14:26:31.994Z,44.80
2018-07-12T14:28:59.143Z,42.70
2018-07-12T14:31:26.333Z,43.60
2018-07-12T14:33:53.500Z,40.60
2018-07-12T14:36:20.719Z,41.80
2018-07-12T14:38:47.923Z,42.80
2018-07-12T14:41:15.161Z,43.20
2018-07-12T14:43:42.355Z,43.80
2018-07-12T14:46:09.888Z,42.90
2018-07-12T14:48:37.056Z,44.00
2018-07-12T14:51:04.218Z,42.70
2018-07-12T14:53:31.383Z,43.50
2018-07-12T14:55:58.564Z,43.40
2018-07-12T14:58:25.730Z,42.70
2018-07-12T15:00:53.276Z,42.70
2018-07-12T15:03:20.455Z,42.80
2018-07-12T15:05:47.625Z,42.70
2018-07-12T15:08:14.813Z,43.50
2018-07-12T15:10:42.004Z,43.60
2018-07-12T15:13:09.176Z,44.20
2018-07-12T15:15:36.344Z,44.10
2018-07-12T15:18:03.514Z,43.60
2018-07-12T15:20:30.663Z,44.20
2018-07-12T15:22:57.829Z,44.00
2018-07-12T15:25:24.991Z,44.70
2018-07-12T15:27:52.271Z,43.60
2018-07-12T15:30:19.328Z,44.00
2018-07-12T15:32:46.485Z,46.00
2018-07-12T15:35:13.626Z,44.80
2018-07-12T15:37:40.791Z,45.40
2018-07-12T15:40:07.958Z,44.80
2018-07-12T15:42:35.345Z,45.80
2018-07-12T15:45:02.571Z,44.10
2018-07-12T15:47:29.832Z,45.10
2018-07-12T15:49:56.972Z,46.40
2018-07-12T15:52:24.162Z,45.40
2018-07-12T15:54:51.298Z,45.10
2018-07-12T15:57:18.595Z,46.40
2018-07-12T15:59:45.745Z,45.80
2018-07-12T16:02:12.983Z,44.90
2018-07-12T16:04:40.126Z,45.60
2018-07-12T16:07:07.339Z,46.70
2018-07-12T16:09:34.542Z,46.30
2018-07-12T16:12:01.724Z,45.00
2018-07-12T16:14:28.882Z,45.50
2018-07-12T16:19:23.232Z,45.80
2018-07-12T16:21:50.724Z,44.80
2018-07-12T16:24:17.919Z,45.70
2018-07-12T16:26:45.125Z,44.50
2018-07-12T16:31:39.443Z,47.00
2018-07-12T16:34:06.815Z,47.10
2018-07-12T16:36:33.970Z,46.20
2018-07-12T16:39:01.130Z,47.70
2018-07-12T16:41:28.326Z,46.00
2018-07-12T16:43:55.576Z,44.60
2018-07-12T16:46:22.737Z,46.70
2018-07-12T16:51:17.090Z,47.50
2018-07-12T16:53:44.287Z,47.30
2018-07-12T16:56:11.463Z,47.50
2018-07-12T16:58:38.623Z,45.50
2018-07-12T17:01:05.877Z,45.50
2018-07-12T17:03:33.344Z,47.30
2018-07-12T17:06:00.532Z,47.90
2018-07-12T17:08:27.716Z,46.10
2018-07-12T17:10:54.887Z,47.70
2018-07-12T17:13:22.082Z,48.50
2018-07-12T17:15:49.286Z,49.20
2018-07-12T17:18:16.457Z,49.50
2018-07-12T17:23:10.903Z,50.00
2018-07-12T17:25:38.075Z,50.00
2018-07-12T17:28:05.254Z,49.00
2018-07-12T17:32:59.579Z,48.30
2018-07-12T17:35:26.740Z,48.70
2018-07-12T17:37:53.907Z,48.70
2018-07-12T17:40:21.090Z,49.30
2018-07-12T17:42:48.250Z,49.90
2018-07-12T17:45:15.402Z,48.10
2018-07-12T17:47:42.881Z,48.90
2018-07-12T17:50:09.979Z,48.80
2018-07-12T17:52:37.150Z,47.50
2018-07-12T17:55:04.313Z,48.90
2018-07-12T17:57:31.493Z,49.00
2018-07-12T17:59:58.656Z,49.90
2018-07-12T18:02:25.819Z,50.40
2018-07-12T18:04:52.989Z,51.40
2018-07-12T18:07:20.183Z,51.20
2018-07-12T18:09:47.332Z,52.40
2018-07-12T18:12:14.713Z,52.00
2018-07-12T18:14:42.073Z,52.20
2018-07-12T18:17:09.239Z,51.40
2018-07-12T18:19:36.397Z,52.70
2018-07-12T18:22:03.844Z,53.10
2018-07-12T18:24:30.994Z,54.10
2018-07-12T18:26:58.164Z,53.50
2018-07-12T18:29:25.366Z,53.70
2018-07-12T18:31:52.629Z,54.10
2018-07-12T18:34:19.847Z,54.80
2018-07-12T18:36:47.256Z,55.00
2018-07-12T18:39:14.445Z,55.50
2018-07-12T18:41:41.694Z,53.80
2018-07-12T18:44:09.368Z,54.00
2018-07-12T18:46:36.540Z,53.00
2018-07-12T18:49:03.897Z,54.10
2018-07-12T18:51:31.038Z,54.70
2018-07-12T18:53:58.262Z,54.70
2018-07-12T18:56:25.583Z,54.90
2018-07-12T18:58:52.747Z,54.70
2018-07-12T19:01:19.922Z,55.10
2018-07-12T19:03:47.079Z,55.40
2018-07-12T19:06:14.247Z,55.80
2018-07-12T19:08:41.456Z,56.10
2018-07-12T19:11:09.061Z,56.80
2018-07-12T19:13:36.480Z,56.70
2018-07-12T19:16:04.228Z,56.40
2018-07-12T19:18:31.933Z,56.60
2018-07-12T19:20:59.163Z,56.60
2018-07-12T19:23:26.324Z,56.50
2018-07-12T19:25:54.327Z,56.50
2018-07-12T19:30:48.949Z,56.50
2018-07-12T19:33:16.113Z,56.40
2018-07-12T19:35:43.273Z,56.80
2018-07-12T19:38:10.478Z,56.50
2018-07-12T19:40:37.720Z,56.70
2018-07-12T19:45:32.454Z,57.00
2018-07-12T19:47:59.692Z,57.10
2018-07-12T19:50:26.947Z,58.10
2018-07-12T19:52:54.262Z,57.60
2018-07-12T19:55:21.468Z,57.70
2018-07-12T19:57:48.675Z,57.70
2018-07-12T20:00:15.843Z,57.70
2018-07-12T20:02:43.072Z,57.90
2018-07-12T20:05:10.256Z,58.60
2018-07-12T20:10:04.792Z,58.60
2018-07-12T20:12:32.027Z,58.50
2018-07-12T20:14:59.308Z,58.80
2018-07-12T20:17:26.463Z,58.60
2018-07-12T20:19:53.638Z,58.40
2018-07-12T20:22:20.884Z,57.90
2018-07-12T20:24:48.272Z,56.90
2018-07-12T20:27:15.529Z,56.10
2018-07-12T20:29:42.959Z,55.70
2018-07-12T20:32:10.138Z,56.00
2018-07-12T20:34:37.302Z,56.50
2018-07-12T20:37:04.604Z,56.50
2018-07-12T20:39:31.852Z,57.20
2018-07-12T20:41:59.132Z,56.70
2018-07-12T20:44:27.410Z,56.60
2018-07-12T20:46:54.568Z,56.80
2018-07-12T20:49:21.850Z,57.50
2018-07-12T20:51:49.030Z,58.10
2018-07-12T20:54:16.364Z,58.70
2018-07-12T20:56:43.623Z,59.30
2018-07-12T20:59:10.813Z,59.70
2018-07-12T21:01:37.962Z,59.90
2018-07-12T21:04:05.302Z,60.40
2018-07-12T21:06:32.791Z,60.60
2018-07-12T21:09:00.043Z,60.70
2018-07-12T21:11:27.338Z,60.80
2018-07-12T21:13:54.582Z,61.50
2018-07-12T21:16:21.739Z,61.70
2018-07-12T21:18:48.915Z,62.20
2018-07-12T21:21:16.058Z,62.30
2018-07-12T21:23:43.277Z,62.50
2018-07-12T21:26:10.383Z,62.90
2018-07-12T21:28:37.548Z,63.10
2018-07-12T21:31:04.728Z,63.10
2018-07-12T21:33:32.100Z,63.10
2018-07-12T21:35:59.294Z,62.80
2018-07-12T21:38:26.508Z,63.30
2018-07-12T21:40:53.775Z,63.20
2018-07-12T21:43:20.934Z,63.20
2018-07-12T21:45:48.187Z,63.20
2018-07-12T21:48:15.428Z,63.30
2018-07-12T21:50:42.595Z,63.70
2018-07-12T21:53:09.751Z,64.10
2018-07-12T21:55:37.239Z,64.50
2018-07-12T21:58:04.395Z,65.10
2018-07-12T22:00:32.629Z,65.50
2018-07-12T22:03:00.147Z,65.70
2018-07-12T22:05:27.258Z,66.10
2018-07-12T22:08:07.397Z,66.20
2018-07-12T22:10:34.675Z,66.10
2018-07-12T22:13:01.823Z,66.30
2018-07-12T22:15:29.172Z,66.40
2018-07-12T22:17:56.343Z,67.00
2018-07-12T22:20:23.509Z,67.00
2018-07-12T22:22:50.696Z,67.20
2018-07-12T22:25:17.854Z,67.50
2018-07-12T22:27:45.003Z,67.50
2018-07-12T22:30:12.317Z,68.00
2018-07-12T22:32:39.520Z,67.30
2018-07-12T22:35:06.703Z,67.60
2018-07-12T22:37:33.855Z,67.70
2018-07-12T22:40:01.025Z,68.20
2018-07-12T22:42:28.320Z,68.40
2018-07-12T22:44:55.563Z,68.30
2018-07-12T22:47:22.719Z,68.00
2018-07-12T22:49:49.932Z,67.80
2018-07-12T22:52:19.807Z,68.40
2018-07-12T22:54:47.156Z,69.00
2018-07-12T22:57:14.317Z,69.40
2018-07-12T22:59:41.520Z,69.10
2018-07-12T23:02:08.701Z,68.80
2018-07-12T23:04:36.293Z,68.40
2018-07-12T23:07:03.443Z,68.60
2018-07-12T23:09:30.610Z,68.90
2018-07-12T23:11:57.884Z,69.20
2018-07-12T23:14:25.078Z,68.80
2018-07-12T23:16:52.219Z,68.20
2018-07-12T23:19:19.390Z,68.00
2018-07-12T23:21:46.572Z,67.90
2018-07-12T23:24:14.245Z,68.00
2018-07-12T23:26:41.407Z,68.40
2018-07-12T23:29:08.556Z,68.50
2018-07-12T23:31:35.741Z,68.10
2018-07-12T23:34:02.945Z,67.80
2018-07-12T23:38:57.283Z,68.00
2018-07-12T23:41:24.511Z,68.40
2018-07-12T23:43:51.729Z,68.30
2018-07-12T23:48:46.181Z,68.80
2018-07-12T23:51:13.546Z,69.40
2018-07-12T23:53:40.704Z,69.70
2018-07-12T23:56:07.965Z,69.90
2018-07-12T23:58:35.143Z,70.40
